Main page
METAR-TAF:

METAR-TAF

Airports :

Dakar, Senegal

Léopold Sédar Senghor International Airport

latitude: 14-44N, longitude: 017-30W, elevation: 27 m

Current weather observation

The report was made 34 minutes ago, at 16:30 UTC
Wind 7 kt from the West, varying between Southwest and West/Northwest
Temperature 31°C
Humidity 59%
Pressure 1012 hPa
Visibility 10 km or more
no clouds below 1500 m and no cumulonimbus

METAR: GOOY 231630Z 27007KT 230V300 CAVOK 31/22 Q1012 NOSIG

Time: 17:04 (17:04 UTC)

Forecast

The report was made 5 hours and 34 minutes ago, at 11:30 UTC
Forecast valid from 23 at 12 UTC to 24 at 18 UTC
Wind 6 kt from the South/Southeast
Visibility 10 km or more
Scattered clouds at a height of 1000 ft
Becoming
from 24 at 05 UTC to 24 at 07 UTC
Wind 10 kt from the Northwest

TAF: GOOY 231130Z 2312/2418 16006KT 9999 SCT010 BECMG 2405/2407 32010KT

Weather observations and forecasts of more than 4000 airports (METAR and TAF reports).

The available stations are represented by yellow and red dots on the map.

Hover mouse over dot to see the name of the station.

Then click to see weather observations and forecasts.

To change the map : click on the green buttons with a black cross to zoom in, on the green button with a dash to zoom out, or on the green arrows for adjacent maps.


METAR-TAF: